createdAt,value
2022-09-16T00:05:53.169Z,17.94
2022-09-16T00:20:58.728Z,17.94
2022-09-16T00:36:12.694Z,17.94
2022-09-16T00:51:21.270Z,17.88
2022-09-16T01:06:28.862Z,17.94
2022-09-16T01:21:44.538Z,17.81
2022-09-16T01:36:56.849Z,17.75
2022-09-16T01:52:07.992Z,17.75
2022-09-16T02:07:16.572Z,17.81
2022-09-16T02:22:28.897Z,17.75
2022-09-16T02:37:41.394Z,17.69
2022-09-16T02:52:52.416Z,17.63
2022-09-16T03:07:58.273Z,17.50
2022-09-16T03:23:10.377Z,17.38
2022-09-16T03:38:17.315Z,17.06
2022-09-16T03:53:22.872Z,16.94
2022-09-16T04:08:28.466Z,16.81
2022-09-16T04:23:34.105Z,16.94
2022-09-16T04:38:39.983Z,16.94
2022-09-16T04:53:46.089Z,16.94
2022-09-16T05:08:52.936Z,16.94
2022-09-16T05:24:02.652Z,17.00
2022-09-16T05:39:22.585Z,16.94
2022-09-16T05:54:29.507Z,17.06
2022-09-16T06:09:35.044Z,17.06
2022-09-16T06:24:40.646Z,17.13
2022-09-16T06:39:46.379Z,17.31
2022-09-16T06:54:51.985Z,17.44
2022-09-16T07:09:57.584Z,17.44
2022-09-16T07:25:03.128Z,17.56
2022-09-16T07:40:09.950Z,17.69
2022-09-16T07:55:17.382Z,18.00
2022-09-16T08:10:23.040Z,18.06
2022-09-16T08:25:28.970Z,18.13
2022-09-16T08:40:37.825Z,18.25
2022-09-16T08:55:47.183Z,18.19
2022-09-16T09:10:57.612Z,18.31
2022-09-16T09:26:10.586Z,18.44
2022-09-16T09:41:22.733Z,18.44
2022-09-16T09:56:33.526Z,18.81
2022-09-16T10:11:49.090Z,19.38
2022-09-16T10:26:54.755Z,19.69
2022-09-16T10:42:00.818Z,19.25
2022-09-16T10:57:21.260Z,19.25
2022-09-16T11:13:00.177Z,19.38
2022-09-16T11:28:33.917Z,18.81
2022-09-16T11:43:55.588Z,18.94
2022-09-16T11:59:05.947Z,19.19
2022-09-16T12:14:17.192Z,19.06
2022-09-16T12:29:28.304Z,19.31
2022-09-16T12:44:54.281Z,17.94
2022-09-16T13:00:17.576Z,17.75
2022-09-16T13:15:29.832Z,17.94
2022-09-16T13:30:37.881Z,17.63
2022-09-16T13:45:44.979Z,17.88
2022-09-16T14:01:00.151Z,18.25
2022-09-16T14:16:06.886Z,18.19
2022-09-16T14:31:17.012Z,18.44
2022-09-16T14:46:22.673Z,17.94
2022-09-16T15:01:29.623Z,16.56
2022-09-16T15:16:41.174Z,16.38
2022-09-16T15:31:48.347Z,16.81
2022-09-16T15:46:54.158Z,16.88
2022-09-16T16:02:02.144Z,16.81
2022-09-16T16:17:14.301Z,16.69
2022-09-16T16:32:20.449Z,16.75
2022-09-16T16:47:26.677Z,16.63
2022-09-16T17:02:32.664Z,16.56
2022-09-16T17:17:38.695Z,16.38
2022-09-16T17:32:44.474Z,16.31
2022-09-16T17:47:50.162Z,16.38
2022-09-16T18:02:56.147Z,16.25
2022-09-16T18:18:01.778Z,16.25
2022-09-16T18:33:08.889Z,15.81
2022-09-16T18:48:14.957Z,15.69
2022-09-16T19:03:23.412Z,15.56
2022-09-16T19:18:30.079Z,15.44
2022-09-16T19:33:36.790Z,15.44
2022-09-16T19:48:44.008Z,15.44
2022-09-16T20:03:51.080Z,15.38
2022-09-16T20:18:56.704Z,15.44
2022-09-16T20:34:02.709Z,15.31
2022-09-16T20:49:11.569Z,15.19
2022-09-16T21:04:19.351Z,15.19
2022-09-16T21:19:25.437Z,15.19
2022-09-16T21:34:31.483Z,15.00
2022-09-16T21:49:37.375Z,14.88
2022-09-16T22:04:43.079Z,15.00
2022-09-16T22:19:49.830Z,14.94
2022-09-16T22:34:56.058Z,14.81
2022-09-16T22:50:01.567Z,14.69
2022-09-16T23:05:08.737Z,14.56
2022-09-16T23:20:14.491Z,14.13
2022-09-16T23:35:20.645Z,14.19
2022-09-16T23:50:26.185Z,14.19
